»·PEaware :: DAL4250 KSBA-KMRY

DAL4250 :: KSBA-KMRY

FLIGHT INFORMATION

Flight Status: Arrived
Operator:
Delta Air Lines
More flights by this operator :: More flights under this callsign
Pilot: Walter H. (552)
Aircraft: MCDONNELL-DOUGLAS MD-82
(MD82)
More flights by this aircraft type
Origin: KSBA Santa Barbara Mun
United States
Destination: KMRY Monterey Peninsula
United States
More flights between these airports :: More routes between these airports
Route: +GAUCH1 MQO BSR WIGGL
File this flight plan on PilotEdge
Remarks: RMK / POWERED BY SIMBRIEF
Altitude:
(Current/Filed)
22,000ft
Speed:
(Current/Filed)
446kts
Departed: 30-Jan-19 03:40 PM
Arrived: 30-Jan-19 04:19 PM
Distance/Time
Traveled:
163nm/0:39
Distance/Time
To Go:
Arrived

Flight Plot

Page will automatically refresh every two minutes.

Flight plan parsing failed; only flown route is shown


Map Options




Map Legend


Flown Route
Filed Route
Departure Airport
Arrival Airport
Navaid (VOR, NDB)
Fix

Horizontal Profiles

Position Reports

Time Latitude Longitude Heading Altitude Ground
Speed
30-Jan-19 14:50 34.424276 -119.837045 0 19ft 0kts
30-Jan-19 14:51 34.424276 -119.837045 104 19ft 0kts
30-Jan-19 14:52 34.424276 -119.837045 104 19ft 0kts
30-Jan-19 14:53 34.424276 -119.837045 104 19ft 0kts
30-Jan-19 14:54 34.424276 -119.837045 104 19ft 0kts
30-Jan-19 14:55 34.424276 -119.837045 104 19ft 0kts
30-Jan-19 14:58 34.424260 -119.836972 104 19ft 0kts
30-Jan-19 15:00 34.424260 -119.836972 104 19ft 0kts
30-Jan-19 15:01 34.424260 -119.836972 104 19ft 0kts
30-Jan-19 15:01 34.424260 -119.836972 104 19ft 0kts
30-Jan-19 15:02 34.424260 -119.836972 104 19ft 0kts
30-Jan-19 15:03 34.424260 -119.836972 104 19ft 0kts
30-Jan-19 15:04 34.424260 -119.836972 104 19ft 0kts
30-Jan-19 15:05 34.424260 -119.836972 104 19ft 0kts
30-Jan-19 15:06 34.424260 -119.836972 104 19ft 0kts
30-Jan-19 15:07 34.424260 -119.836972 104 19ft 0kts
30-Jan-19 15:08 34.424260 -119.836972 104 19ft 0kts
30-Jan-19 15:09 34.424260 -119.836972 104 19ft 0kts
30-Jan-19 15:10 34.424260 -119.836972 104 19ft 0kts
30-Jan-19 15:11 34.424260 -119.836972 104 19ft 0kts
30-Jan-19 15:12 34.424260 -119.836972 104 19ft 0kts
30-Jan-19 15:17 34.426012 -119.836626 190 19ft 0kts
30-Jan-19 15:18 34.426012 -119.836626 190 19ft 0kts
30-Jan-19 15:19 34.426012 -119.836626 190 19ft 0kts
30-Jan-19 15:20 34.426012 -119.836626 190 19ft 0kts
30-Jan-19 15:21 34.426012 -119.836626 190 19ft 0kts
30-Jan-19 15:22 34.426012 -119.836626 190 19ft 0kts
30-Jan-19 15:23 34.426012 -119.836626 190 19ft 0kts
30-Jan-19 15:24 34.426012 -119.836626 190 19ft 0kts
30-Jan-19 15:25 34.426012 -119.836626 190 19ft 0kts
30-Jan-19 15:26 34.426012 -119.836626 190 19ft 0kts
30-Jan-19 15:27 34.426012 -119.836626 190 19ft 0kts
30-Jan-19 15:28 34.426012 -119.836626 190 19ft 0kts
30-Jan-19 15:29 34.426012 -119.836626 190 19ft 0kts
30-Jan-19 15:30 34.426012 -119.836626 190 19ft 0kts
30-Jan-19 15:31 34.426318 -119.836559 190 19ft 2kts
30-Jan-19 15:32 34.426810 -119.836451 190 19ft 0kts
30-Jan-19 15:33 34.426806 -119.836452 190 19ft 0kts
30-Jan-19 15:34 34.426803 -119.836453 190 19ft 0kts
30-Jan-19 15:35 34.426914 -119.835324 28 19ft 0kts
30-Jan-19 15:36 34.426918 -119.835322 28 19ft 0kts
30-Jan-19 15:37 34.426921 -119.835320 28 19ft 0kts
30-Jan-19 15:38 34.427854 -119.835793 266 19ft 0kts
30-Jan-19 15:39 34.427089 -119.876374 267 1480ft 186kts
30-Jan-19 15:40 34.425321 -119.953838 269 2995ft 265kts
30-Jan-19 15:41 34.423780 -120.039567 271 3514ft 226kts
30-Jan-19 15:42 34.422701 -120.110243 271 5226ft 237kts
30-Jan-19 15:43 34.444372 -120.192545 324 7259ft 292kts
30-Jan-19 15:44 34.516040 -120.230951 337 10799ft 291kts
30-Jan-19 15:45 34.594657 -120.273861 326 13298ft 316kts
30-Jan-19 15:46 34.664662 -120.341120 318 16056ft 326kts
30-Jan-19 15:47 34.736738 -120.411520 323 18728ft 339kts
30-Jan-19 15:48 34.821008 -120.469419 330 21220ft 354kts
30-Jan-19 15:49 34.909465 -120.526452 328 22013ft 360kts
30-Jan-19 15:50 34.997143 -120.585738 328 22008ft 360kts
30-Jan-19 15:51 35.084858 -120.645325 328 21997ft 360kts
30-Jan-19 15:52 35.172736 -120.705031 328 21991ft 361kts
30-Jan-19 15:53 35.260340 -120.765508 325 21989ft 360kts
30-Jan-19 15:54 35.339502 -120.839997 319 21984ft 360kts
30-Jan-19 15:55 35.418428 -120.916326 320 21917ft 361kts
30-Jan-19 15:56 35.497423 -120.990377 320 20957ft 354kts
30-Jan-19 15:57 35.574879 -121.063156 320 19601ft 347kts
30-Jan-19 15:58 35.650984 -121.134810 320 18196ft 340kts
30-Jan-19 15:59 35.725300 -121.204725 320 16798ft 334kts
30-Jan-19 16:00 35.798454 -121.274473 320 15497ft 330kts
30-Jan-19 16:01 35.866978 -121.339968 320 14185ft 292kts
30-Jan-19 16:02 35.929020 -121.399426 321 12882ft 279kts
30-Jan-19 16:03 35.999298 -121.431749 2 11588ft 285kts
30-Jan-19 16:04 36.072013 -121.416022 8 10252ft 243kts
30-Jan-19 16:05 36.138560 -121.401881 6 10012ft 240kts
30-Jan-19 16:06 36.204499 -121.390242 5 10006ft 239kts
30-Jan-19 16:07 36.271762 -121.379809 4 10019ft 264kts
30-Jan-19 16:08 36.346790 -121.369809 4 10010ft 272kts
30-Jan-19 16:09 36.414791 -121.361024 3 10007ft 227kts
30-Jan-19 16:10 36.461561 -121.406135 307 9025ft 222kts
30-Jan-19 16:11 36.501228 -121.463788 312 7629ft 215kts
30-Jan-19 16:12 36.541215 -121.516703 313 6377ft 202kts
30-Jan-19 16:13 36.573199 -121.573069 268 5245ft 202kts
30-Jan-19 16:14 36.561937 -121.638486 275 4192ft 187kts
30-Jan-19 16:15 36.569313 -121.698582 278 2863ft 172kts
30-Jan-19 16:16 36.575473 -121.756539 277 1764ft 170kts
30-Jan-19 16:17 36.580277 -121.813813 274 785ft 149kts
30-Jan-19 16:18 36.590290 -121.854132 292 215ft 39kts

Navigation Log

Ident Type
Flight plan parsing failed, navigation log unavailable